Time;durP1;ratioP1;P1;durP2;ratioP2;P2;SDS_P1;SDS_P2;PMS_P1;PMS_P2;Temp;Humidity;BMP_temperature;BMP_pressure;BME280_temperature;BME280_humidity;BME280_pressure;Samples;Min_cycle;Max_cycle;Signal;HPM_P1;HPM_P2
2022/03/14 00:00:16;;;;;;;18.85;11.20;;;9.20;86.30;;;;;;5106381;27;20047;-80
2022/03/14 00:02:42;;;;;;;18.38;10.57;;;9.20;86.70;;;;;;5089945;27;20047;-81
2022/03/14 00:05:10;;;;;;;20.17;10.63;;;9.20;86.90;;;;;;5105481;27;20047;-81
2022/03/14 00:07:38;;;;;;;18.10;10.07;;;9.30;87.20;;;;;;5114269;27;20403;-82
2022/03/14 00:10:04;;;;;;;20.38;12.13;;;9.30;87.70;;;;;;5113293;27;20067;-81
2022/03/14 00:12:31;;;;;;;18.55;11.10;;;9.20;87.90;;;;;;5102619;27;20074;-81
2022/03/14 00:14:58;;;;;;;20.10;11.27;;;9.20;89.00;;;;;;5128595;27;20073;-80
2022/03/14 00:17:25;;;;;;;20.27;11.05;;;9.20;89.10;;;;;;5095983;27;20286;-80
2022/03/14 00:19:51;;;;;;;21.88;12.10;;;9.20;89.20;;;;;;5115000;27;20043;-81
2022/03/14 00:22:19;;;;;;;18.55;10.98;;;9.10;90.20;;;;;;5115213;27;20046;-81
2022/03/14 00:24:45;;;;;;;18.58;10.88;;;9.10;90.40;;;;;;5127385;27;20426;-81
2022/03/14 00:27:11;;;;;;;19.45;11.35;;;9.10;90.70;;;;;;5126738;27;20042;-81
2022/03/14 00:29:37;;;;;;;21.45;11.50;;;9.40;91.10;;;;;;5099077;27;20119;-81
2022/03/14 00:32:03;;;;;;;18.23;10.40;;;9.00;91.50;;;;;;5115904;27;20047;-81
2022/03/14 00:34:29;;;;;;;18.17;10.30;;;9.00;91.90;;;;;;5133550;27;20074;-81
2022/03/14 00:36:54;;;;;;;18.73;10.75;;;9.00;92.50;;;;;;5114641;27;20110;-82
2022/03/14 00:39:20;;;;;;;18.17;10.38;;;9.30;92.90;;;;;;5122865;27;20030;-81
2022/03/14 00:41:46;;;;;;;16.27;10.27;;;9.10;93.10;;;;;;5118726;27;20520;-81
2022/03/14 00:44:15;;;;;;;17.08;10.90;;;9.10;93.50;;;;;;5131672;27;20433;-81
2022/03/14 00:46:41;;;;;;;17.15;11.10;;;9.20;94.00;;;;;;5109570;27;20487;-81
2022/03/14 00:49:07;;;;;;;19.38;11.55;;;9.20;94.10;;;;;;5107850;27;20050;-82
2022/03/14 00:51:36;;;;;;;17.58;11.27;;;9.20;94.60;;;;;;5105639;27;20471;-83
2022/03/14 00:54:02;;;;;;;19.17;11.05;;;9.30;94.90;;;;;;5107414;27;20047;-82
2022/03/14 00:56:28;;;;;;;19.55;10.88;;;9.30;95.00;;;;;;5109764;27;20537;-82
2022/03/14 00:58:55;;;;;;;17.35;11.02;;;9.50;95.30;;;;;;5123447;27;20038;-81
2022/03/14 01:01:21;;;;;;;20.10;11.50;;;9.30;95.10;;;;;;5108916;27;20091;-82
2022/03/14 01:03:47;;;;;;;21.98;11.48;;;9.30;95.30;;;;;;5132365;27;20046;-82
2022/03/14 01:06:13;;;;;;;18.38;10.98;;;9.30;95.50;;;;;;5101181;27;20466;-81
2022/03/14 01:08:39;;;;;;;20.83;12.25;;;9.30;95.70;;;;;;5112150;27;20107;-81
2022/03/14 01:11:04;;;;;;;22.67;12.85;;;9.30;95.90;;;;;;5097289;27;20491;-81
2022/03/14 01:13:30;;;;;;;17.55;11.20;;;9.30;96.00;;;;;;5124896;27;20047;-81
2022/03/14 01:15:56;;;;;;;21.63;11.75;;;9.30;96.10;;;;;;5135461;27;20042;-81
2022/03/14 01:18:22;;;;;;;19.40;11.32;;;9.30;96.40;;;;;;5131307;27;20141;-81
2022/03/14 01:20:48;;;;;;;17.80;11.18;;;9.30;96.60;;;;;;5110192;27;20045;-81
2022/03/14 01:23:14;;;;;;;19.05;11.50;;;9.20;96.90;;;;;;5114061;27;20038;-81
2022/03/14 01:25:42;;;;;;;21.33;12.00;;;9.20;97.10;;;;;;5118124;27;20035;-81
2022/03/14 01:28:09;;;;;;;17.45;10.85;;;9.20;97.60;;;;;;5140841;27;20042;-81
2022/03/14 01:30:35;;;;;;;19.52;11.73;;;9.20;97.70;;;;;;5126038;27;20569;-81
2022/03/14 01:33:01;;;;;;;17.92;10.90;;;9.20;97.90;;;;;;5120210;27;20637;-81
2022/03/14 01:35:27;;;;;;;19.67;11.18;;;9.20;98.40;;;;;;5105304;27;20051;-81
2022/03/14 01:37:54;;;;;;;20.23;11.52;;;9.20;98.40;;;;;;5129882;27;20035;-81
2022/03/14 01:40:20;;;;;;;19.50;10.90;;;9.10;98.40;;;;;;5125714;27;20601;-81
2022/03/14 01:42:46;;;;;;;17.20;10.43;;;9.10;98.80;;;;;;5126739;27;20091;-81
2022/03/14 01:45:13;;;;;;;20.20;11.23;;;9.00;98.80;;;;;;5124010;27;20039;-81
2022/03/14 01:47:41;;;;;;;15.55;10.45;;;9.10;99.30;;;;;;5126365;27;20388;-81
2022/03/14 01:50:08;;;;;;;20.15;11.52;;;9.40;99.70;;;;;;5111596;28;20515;-81
2022/03/14 01:52:34;;;;;;;17.30;10.75;;;9.10;99.90;;;;;;5111945;27;20034;-81
2022/03/14 01:55:01;;;;;;;17.77;10.65;;;9.10;99.90;;;;;;5121783;27;20043;-81
2022/03/14 01:57:27;;;;;;;19.60;11.32;;;9.10;99.90;;;;;;5109642;27;20103;-81
2022/03/14 01:59:54;;;;;;;18.75;11.10;;;9.10;99.90;;;;;;5112526;27;20035;-81
2022/03/14 02:02:20;;;;;;;19.20;11.15;;;9.10;99.90;;;;;;5130038;27;20045;-81
2022/03/14 02:04:47;;;;;;;17.33;10.15;;;9.10;99.90;;;;;;5110321;27;20374;-81
2022/03/14 02:07:12;;;;;;;18.27;11.27;;;9.10;99.90;;;;;;5114544;27;20070;-81
2022/03/14 02:09:38;;;;;;;16.67;10.90;;;9.30;99.90;;;;;;5129543;27;20073;-81
2022/03/14 02:12:06;;;;;;;16.20;10.02;;;9.10;99.90;;;;;;5109174;27;20131;-81
2022/03/14 02:14:32;;;;;;;17.45;10.55;;;9.00;99.90;;;;;;5110390;27;20384;-81
2022/03/14 02:16:57;;;;;;;15.93;10.30;;;9.00;99.90;;;;;;5140046;27;20039;-81
2022/03/14 02:19:23;;;;;;;18.90;10.57;;;9.00;99.90;;;;;;5106612;27;20504;-80
2022/03/14 02:21:49;;;;;;;18.17;10.95;;;8.90;99.90;;;;;;5101342;27;20449;-81
2022/03/14 02:24:15;;;;;;;19.25;11.13;;;8.90;99.90;;;;;;5145638;27;20425;-81
2022/03/14 02:26:43;;;;;;;19.73;11.07;;;8.90;99.90;;;;;;5130550;27;20107;-80
2022/03/14 02:29:10;;;;;;;18.95;10.90;;;8.90;99.90;;;;;;5127652;27;20043;-80
2022/03/14 02:31:37;;;;;;;17.15;10.70;;;9.00;99.90;;;;;;5129723;27;20524;-81
2022/03/14 02:34:07;;;;;;;19.77;11.52;;;8.90;99.90;;;;;;5133556;27;20043;-80
2022/03/14 02:36:39;;;;;;;16.80;9.65;;;8.90;99.90;;;;;;5137624;27;20074;-81
2022/03/14 02:39:06;;;;;;;15.93;10.57;;;9.00;99.90;;;;;;5134829;27;20418;-80
2022/03/14 02:41:35;;;;;;;15.63;10.13;;;9.00;99.90;;;;;;5140680;27;20445;-81
2022/03/14 02:44:02;;;;;;;17.17;9.95;;;9.00;99.90;;;;;;5112114;27;20126;-81
2022/03/14 02:46:29;;;;;;;16.27;9.85;;;9.00;99.90;;;;;;5113933;27;20042;-81
2022/03/14 02:48:54;;;;;;;16.90;9.63;;;9.00;99.90;;;;;;5147762;27;20054;-81
2022/03/14 02:51:20;;;;;;;16.60;9.43;;;9.00;99.90;;;;;;5117901;27;20039;-81
2022/03/14 02:53:46;;;;;;;18.05;9.80;;;9.10;99.90;;;;;;5125483;27;20053;-81
2022/03/14 02:56:12;;;;;;;16.38;9.32;;;9.10;99.90;;;;;;5107252;27;20039;-81
2022/03/14 02:58:39;;;;;;;16.52;10.02;;;9.10;99.90;;;;;;5112628;27;20059;-81
2022/03/14 03:01:05;;;;;;;16.35;9.35;;;9.10;99.90;;;;;;5120676;27;20035;-81
2022/03/14 03:03:32;;;;;;;16.33;9.35;;;9.20;99.90;;;;;;5120284;27;20492;-81
2022/03/14 03:05:58;;;;;;;16.67;9.57;;;9.10;99.90;;;;;;5133774;27;20047;-81
2022/03/14 03:08:24;;;;;;;14.20;9.10;;;9.90;99.90;;;;;;5121537;27;20620;-81
2022/03/14 03:10:49;;;;;;;15.25;9.13;;;9.20;99.90;;;;;;5140464;27;20159;-81
2022/03/14 03:13:16;;;;;;;15.57;9.52;;;9.20;99.90;;;;;;5122513;27;20038;-81
2022/03/14 03:15:41;;;;;;;15.65;9.15;;;9.20;99.90;;;;;;5123658;27;20043;-81
2022/03/14 03:18:09;;;;;;;15.05;8.60;;;9.10;99.90;;;;;;5137648;27;20103;-81
2022/03/14 03:20:34;;;;;;;14.95;8.57;;;9.10;99.90;;;;;;5112700;27;20457;-81
2022/03/14 03:23:01;;;;;;;15.27;9.40;;;9.10;99.90;;;;;;5120735;27;20108;-81
2022/03/14 03:25:27;;;;;;;16.38;9.00;;;9.10;99.90;;;;;;5114673;27;20050;-81
2022/03/14 03:27:53;;;;;;;13.40;8.23;;;9.10;99.90;;;;;;5118280;27;20110;-81
2022/03/14 03:30:19;;;;;;;14.32;8.68;;;9.10;99.90;;;;;;5115045;27;20042;-81
2022/03/14 03:32:44;;;;;;;11.50;7.80;;;9.10;99.90;;;;;;5132390;27;20077;-81
2022/03/14 03:35:10;;;;;;;13.40;7.82;;;9.10;99.90;;;;;;5125055;27;20046;-81
2022/03/14 03:37:36;;;;;;;14.77;8.07;;;9.10;99.90;;;;;;5130706;27;20041;-80
2022/03/14 03:40:02;;;;;;;13.30;7.72;;;9.10;99.90;;;;;;5113308;27;20506;-81
2022/03/14 03:42:28;;;;;;;12.30;7.40;;;9.20;99.90;;;;;;5115275;27;20030;-82
2022/03/14 03:44:54;;;;;;;14.35;7.85;;;9.20;99.90;;;;;;5112784;27;20043;-81
2022/03/14 03:47:19;;;;;;;14.32;8.40;;;9.20;99.90;;;;;;5130187;27;20439;-81
2022/03/14 03:49:45;;;;;;;14.18;8.23;;;9.10;99.90;;;;;;5120399;27;20062;-81
2022/03/14 03:52:11;;;;;;;13.55;7.30;;;9.20;99.90;;;;;;5112411;27;20046;-81
2022/03/14 03:54:37;;;;;;;12.50;7.22;;;9.30;99.90;;;;;;5130745;27;20484;-82
2022/03/14 03:57:03;;;;;;;12.35;7.85;;;9.10;99.90;;;;;;5112983;27;20090;-80
2022/03/14 03:59:29;;;;;;;13.07;7.47;;;9.10;99.90;;;;;;5120962;27;20080;-81
2022/03/14 04:01:55;;;;;;;13.02;7.88;;;9.10;99.90;;;;;;5113732;27;20038;-81
2022/03/14 04:04:22;;;;;;;12.35;7.60;;;9.10;99.90;;;;;;5108926;27;20067;-81
2022/03/14 04:06:56;;;;;;;11.30;6.80;;;9.10;99.90;;;;;;5127720;27;20082;-80
2022/03/14 04:09:22;;;;;;;11.68;7.18;;;9.10;99.90;;;;;;5113405;27;20424;-81
2022/03/14 04:11:47;;;;;;;11.55;7.25;;;9.00;99.90;;;;;;5122144;27;20035;-81
2022/03/14 04:14:15;;;;;;;10.30;6.43;;;9.00;99.90;;;;;;5126258;27;20491;-81
2022/03/14 04:16:41;;;;;;;11.00;7.00;;;9.00;99.90;;;;;;5098040;27;20446;-81
2022/03/14 04:19:07;;;;;;;13.15;6.80;;;9.10;99.90;;;;;;5088735;27;20051;-81
2022/03/14 04:21:34;;;;;;;10.20;6.18;;;9.10;99.90;;;;;;5089218;27;20121;-81
2022/03/14 04:24:01;;;;;;;10.85;6.18;;;9.00;99.90;;;;;;5111563;27;20035;-81
2022/03/14 04:26:27;;;;;;;10.95;6.55;;;9.40;99.90;;;;;;5092301;27;20055;-82
2022/03/14 04:28:54;;;;;;;9.63;5.88;;;9.00;99.90;;;;;;5099697;27;20043;-81
2022/03/14 04:31:21;;;;;;;10.02;5.60;;;9.00;99.90;;;;;;5106632;27;20471;-81
2022/03/14 04:33:47;;;;;;;10.00;5.90;;;9.40;99.90;;;;;;5107164;27;20054;-81
2022/03/14 04:36:13;;;;;;;9.63;5.63;;;9.00;99.90;;;;;;5108319;27;20031;-81
2022/03/14 04:38:40;;;;;;;10.20;5.93;;;9.00;99.90;;;;;;5127774;27;20043;-81
2022/03/14 04:41:05;;;;;;;11.45;5.85;;;9.00;99.90;;;;;;5092203;27;20023;-81
2022/03/14 04:43:31;;;;;;;10.50;5.65;;;9.00;99.90;;;;;;5101715;27;20051;-81
2022/03/14 04:45:57;;;;;;;9.48;5.30;;;9.00;99.90;;;;;;5088520;27;20119;-81
2022/03/14 04:48:23;;;;;;;9.25;5.22;;;9.00;99.90;;;;;;5099187;27;20434;-81
2022/03/14 04:50:50;;;;;;;8.80;4.65;;;9.00;99.90;;;;;;5099488;27;20127;-81
2022/03/14 04:53:17;;;;;;;9.00;5.07;;;9.00;99.90;;;;;;5100564;27;20055;-80
2022/03/14 04:55:44;;;;;;;10.60;4.78;;;8.90;99.90;;;;;;5108273;27;20080;-81
2022/03/14 04:58:12;;;;;;;8.80;4.55;;;9.10;99.90;;;;;;5128820;27;20035;-81
2022/03/14 05:00:38;;;;;;;9.30;4.60;;;8.90;99.90;;;;;;5092549;27;20040;-81
2022/03/14 05:03:05;;;;;;;7.07;4.32;;;8.90;99.90;;;;;;5089441;27;20050;-81
2022/03/14 05:05:31;;;;;;;8.10;4.43;;;8.90;99.90;;;;;;5092343;27;20040;-81
2022/03/14 05:07:57;;;;;;;8.25;4.20;;;8.90;99.90;;;;;;5097868;27;20043;-82
2022/03/14 05:10:23;;;;;;;9.73;4.20;;;8.90;99.90;;;;;;5109420;27;20182;-81
2022/03/14 05:12:49;;;;;;;7.50;4.35;;;8.90;99.90;;;;;;5110187;27;20087;-81
2022/03/14 05:15:18;;;;;;;8.15;4.45;;;8.90;99.90;;;;;;5101755;28;20404;-81
2022/03/14 05:17:45;;;;;;;8.55;4.40;;;8.90;99.90;;;;;;5125256;27;20507;-82
2022/03/14 05:20:11;;;;;;;6.18;3.70;;;8.90;99.90;;;;;;5104157;27;20048;-81
2022/03/14 05:22:48;;;;;;;9.43;4.28;;;8.90;99.90;;;;;;5100749;27;20133;-81
2022/03/14 05:25:16;;;;;;;7.85;4.28;;;9.00;99.90;;;;;;5085774;27;20035;-81
2022/03/14 05:27:42;;;;;;;7.22;3.70;;;9.00;99.90;;;;;;5093761;28;20039;-82
2022/03/14 05:30:08;;;;;;;7.30;3.55;;;9.00;99.90;;;;;;5111259;27;20046;-81
2022/03/14 05:32:35;;;;;;;6.93;3.40;;;8.90;99.90;;;;;;5106846;27;20043;-79
2022/03/14 05:35:01;;;;;;;7.32;4.00;;;8.80;99.90;;;;;;5086688;28;20035;-81
2022/03/14 05:37:27;;;;;;;8.15;3.80;;;9.00;99.90;;;;;;5091721;27;20044;-81
2022/03/14 05:39:53;;;;;;;5.65;3.05;;;9.00;99.90;;;;;;5100286;27;20457;-81
2022/03/14 05:42:19;;;;;;;5.72;3.05;;;9.20;99.90;;;;;;5098168;27;20467;-81
2022/03/14 05:44:45;;;;;;;6.10;3.30;;;9.00;99.90;;;;;;5079902;28;20109;-81
2022/03/14 05:47:11;;;;;;;7.15;3.30;;;9.00;99.90;;;;;;5084110;28;20054;-81
2022/03/14 05:49:37;;;;;;;7.55;3.60;;;9.10;99.90;;;;;;5079464;27;20533;-81
2022/03/14 05:52:04;;;;;;;6.38;3.42;;;9.10;99.90;;;;;;5095797;27;20038;-81
2022/03/14 05:54:29;;;;;;;6.10;3.30;;;9.10;99.90;;;;;;5073784;28;20044;-81
2022/03/14 05:56:55;;;;;;;7.18;3.33;;;9.10;99.90;;;;;;5087813;27;20574;-81
2022/03/14 05:59:21;;;;;;;6.13;3.00;;;9.10;99.90;;;;;;5120101;27;20046;-82
2022/03/14 06:01:48;;;;;;;6.68;3.55;;;9.10;99.90;;;;;;5110912;28;20054;-81
2022/03/14 06:04:14;;;;;;;6.43;3.30;;;9.00;99.90;;;;;;5080191;27;20495;-81
2022/03/14 06:06:42;;;;;;;6.60;3.20;;;9.00;99.90;;;;;;5114529;27;20046;-81
2022/03/14 06:09:08;;;;;;;6.72;3.22;;;9.30;99.90;;;;;;5098886;28;20053;-81
2022/03/14 06:11:34;;;;;;;7.45;3.10;;;9.00;99.90;;;;;;5097199;28;20039;-81
2022/03/14 06:14:00;;;;;;;8.60;3.60;;;9.20;99.90;;;;;;5086428;27;20780;-81
2022/03/14 06:16:25;;;;;;;5.78;3.08;;;9.60;99.90;;;;;;5102396;27;20084;-82
2022/03/14 06:18:51;;;;;;;6.43;3.28;;;9.10;99.90;;;;;;5115973;27;20099;-82
2022/03/14 06:21:17;;;;;;;6.60;3.35;;;9.00;99.90;;;;;;5096122;27;20035;-82
2022/03/14 06:23:43;;;;;;;7.82;3.17;;;9.10;99.90;;;;;;5119526;27;20074;-82
2022/03/14 06:26:09;;;;;;;6.50;2.85;;;9.00;99.90;;;;;;5111753;27;20047;-82
2022/03/14 06:28:35;;;;;;;7.20;3.25;;;9.10;99.90;;;;;;5105149;27;20514;-81
2022/03/14 06:31:00;;;;;;;5.63;3.10;;;9.10;99.90;;;;;;5137142;27;20295;-82
2022/03/14 06:33:26;;;;;;;6.53;3.10;;;9.10;99.90;;;;;;5106713;27;20043;-82
2022/03/14 06:35:52;;;;;;;6.70;3.42;;;9.10;99.90;;;;;;5115107;27;20039;-82
2022/03/14 06:38:17;;;;;;;6.38;3.50;;;9.10;99.90;;;;;;5142153;27;20043;-82
2022/03/14 06:40:43;;;;;;;6.55;3.85;;;9.10;99.90;;;;;;5145248;27;20031;-82
2022/03/14 06:43:11;;;;;;;6.50;3.60;;;9.10;99.90;;;;;;5104301;27;20088;-82
2022/03/14 06:45:39;;;;;;;6.57;3.35;;;9.20;99.90;;;;;;5116160;27;20051;-82
2022/03/14 06:48:06;;;;;;;6.00;3.28;;;9.20;99.90;;;;;;5099052;27;20073;-82
2022/03/14 06:50:34;;;;;;;5.82;3.13;;;9.20;99.90;;;;;;5130347;27;20047;-82
2022/03/14 06:53:01;;;;;;;7.05;3.25;;;9.20;99.90;;;;;;5094025;27;20235;-82
2022/03/14 06:55:27;;;;;;;7.10;3.70;;;9.20;99.90;;;;;;5122938;27;20050;-82
2022/03/14 06:57:54;;;;;;;6.80;3.15;;;9.20;99.90;;;;;;5135774;27;20046;-82
2022/03/14 07:00:20;;;;;;;7.30;3.80;;;9.20;99.90;;;;;;5110604;27;20043;-82
2022/03/14 07:02:46;;;;;;;6.38;3.55;;;9.50;99.90;;;;;;5090660;27;20039;-82
2022/03/14 07:05:13;;;;;;;8.40;3.75;;;9.20;99.90;;;;;;5103560;27;20384;-82
2022/03/14 07:07:42;;;;;;;8.70;3.88;;;9.20;99.90;;;;;;5110500;27;20035;-82
2022/03/14 07:10:29;;;;;;;6.45;3.83;;;9.20;99.90;;;;;;5092230;27;20046;-83
2022/03/14 07:12:54;;;;;;;8.10;3.88;;;9.60;99.90;;;;;;5133028;27;20073;-83
2022/03/14 07:15:22;;;;;;;8.05;4.18;;;10.10;99.90;;;;;;5099261;27;20082;-83
2022/03/14 07:17:48;;;;;;;6.97;3.70;;;9.20;99.90;;;;;;5141610;27;20059;-83
2022/03/14 07:20:14;;;;;;;6.13;3.58;;;10.00;99.90;;;;;;5125251;27;20406;-83
2022/03/14 07:23:00;;;;;;;6.85;3.50;;;10.00;99.90;;;;;;5110208;27;20038;-83
2022/03/14 07:25:31;;;;;;;8.05;3.92;;;9.00;99.90;;;;;;5151101;27;20506;-83
2022/03/14 07:28:06;;;;;;;6.95;3.83;;;9.10;99.90;;;;;;5149970;27;20051;-83
2022/03/14 07:30:31;;;;;;;7.22;3.85;;;9.30;99.90;;;;;;5133215;27;20043;-83
2022/03/14 07:32:57;;;;;;;6.82;3.58;;;9.50;99.90;;;;;;5106749;27;20047;-83
2022/03/14 07:35:25;;;;;;;7.53;4.50;;;9.10;99.90;;;;;;5127366;27;20123;-83
2022/03/14 07:37:51;;;;;;;7.20;3.88;;;10.00;99.90;;;;;;5134015;27;20038;-83
2022/03/14 07:40:17;;;;;;;6.32;3.70;;;9.10;99.90;;;;;;5129773;27;20043;-83
2022/03/14 07:42:45;;;;;;;7.47;4.20;;;9.20;99.90;;;;;;5111779;27;20061;-83
2022/03/14 07:45:16;;;;;;;7.53;4.30;;;10.20;99.90;;;;;;5125575;27;20043;-84
2022/03/14 07:47:42;;;;;;;7.97;4.10;;;10.10;99.90;;;;;;5109473;27;20096;-82
2022/03/14 07:50:10;;;;;;;7.93;4.43;;;9.90;99.90;;;;;;5126676;27;20043;-82
2022/03/14 07:52:37;;;;;;;7.45;4.10;;;9.90;99.90;;;;;;5115990;27;20047;-82
2022/03/14 07:55:07;;;;;;;6.80;4.20;;;8.60;99.90;;;;;;5117545;27;20056;-82
2022/03/14 07:57:38;;;;;;;7.65;4.30;;;9.30;99.90;;;;;;5100818;27;20196;-82
2022/03/14 08:00:11;;;;;;;7.65;4.10;;;9.30;99.90;;;;;;5107579;27;20042;-82
2022/03/14 08:02:38;;;;;;;6.88;4.07;;;9.30;99.90;;;;;;5120868;27;20138;-82
2022/03/14 08:05:08;;;;;;;6.70;3.83;;;9.40;99.90;;;;;;5134166;27;20465;-82
2022/03/14 08:07:34;;;;;;;8.18;4.20;;;9.40;99.90;;;;;;5135266;27;20057;-82
2022/03/14 08:10:01;;;;;;;8.80;4.63;;;10.00;99.90;;;;;;5139387;27;20061;-82
2022/03/14 08:12:26;;;;;;;7.22;4.35;;;9.40;99.90;;;;;;5119409;27;20126;-82
2022/03/14 08:14:52;;;;;;;6.35;3.85;;;9.50;99.90;;;;;;5112532;27;20522;-82
2022/03/14 08:17:18;;;;;;;7.55;4.25;;;9.50;99.90;;;;;;5099208;27;20368;-85
2022/03/14 08:19:47;;;;;;;7.40;4.55;;;9.50;99.90;;;;;;5117261;27;20055;-83
2022/03/14 08:22:13;;;;;;;7.88;4.43;;;9.50;99.90;;;;;;5134535;27;20423;-82
2022/03/14 08:24:38;;;;;;;8.48;4.80;;;9.50;99.90;;;;;;5099700;27;20046;-83
2022/03/14 08:27:04;;;;;;;7.30;4.30;;;9.50;99.90;;;;;;5118562;27;20569;-83
2022/03/14 08:29:32;;;;;;;7.80;4.57;;;9.60;99.90;;;;;;5097736;27;20047;-83
2022/03/14 08:31:58;;;;;;;7.65;4.40;;;9.60;99.90;;;;;;5113623;27;20416;-83
2022/03/14 08:35:07;;;;;;;8.55;4.45;;;9.50;99.90;;;;;;5130333;27;20087;-84
2022/03/14 08:37:48;;;;;;;9.38;5.35;;;9.50;99.90;;;;;;5133872;27;20050;-83
2022/03/14 08:40:16;;;;;;;8.13;4.97;;;9.50;99.90;;;;;;5097674;27;20035;-82
2022/03/14 08:42:44;;;;;;;8.13;4.80;;;9.90;99.90;;;;;;5094908;27;20068;-84
2022/03/14 08:45:11;;;;;;;8.98;5.70;;;9.60;99.90;;;;;;5100218;27;20042;-82
2022/03/14 08:47:37;;;;;;;9.05;5.32;;;9.60;99.90;;;;;;5118016;27;20175;-83
2022/03/14 08:50:08;;;;;;;9.20;5.28;;;9.60;99.90;;;;;;5135965;27;20059;-83
2022/03/14 08:52:35;;;;;;;8.93;5.15;;;9.60;99.90;;;;;;5114795;27;20043;-83
2022/03/14 08:55:01;;;;;;;11.82;5.35;;;9.60;99.90;;;;;;5096153;27;20039;-83
2022/03/14 08:57:27;;;;;;;18.75;5.47;;;9.80;99.90;;;;;;5113389;27;20103;-83
2022/03/14 08:59:54;;;;;;;8.82;4.90;;;9.60;99.90;;;;;;5081395;27;20461;-83
2022/03/14 09:02:20;;;;;;;9.30;5.28;;;9.60;99.90;;;;;;5114148;27;20091;-84
2022/03/14 09:04:46;;;;;;;8.57;5.50;;;9.60;99.90;;;;;;5126569;27;20088;-83
2022/03/14 09:07:11;;;;;;;8.18;5.28;;;9.60;99.90;;;;;;5118889;27;20751;-82
2022/03/14 09:09:37;;;;;;;9.23;5.75;;;9.70;99.90;;;;;;5118723;27;20043;-83
2022/03/14 09:12:03;;;;;;;9.00;5.47;;;9.50;99.90;;;;;;5115327;27;20043;-83
2022/03/14 09:14:31;;;;;;;9.65;5.55;;;9.60;99.90;;;;;;5100081;27;20073;-83
2022/03/14 09:16:58;;;;;;;9.88;5.70;;;9.50;99.90;;;;;;5101477;27;20047;-83
2022/03/14 09:19:25;;;;;;;10.32;5.70;;;9.50;99.90;;;;;;5123785;27;20515;-83
2022/03/14 09:21:51;;;;;;;9.43;5.75;;;9.50;99.90;;;;;;5103370;27;20034;-84
2022/03/14 09:24:16;;;;;;;8.45;5.00;;;9.50;99.90;;;;;;5139498;27;20092;-83
2022/03/14 09:26:42;;;;;;;9.60;6.10;;;9.50;99.90;;;;;;5123609;27;20061;-85
2022/03/14 09:29:08;;;;;;;9.98;6.63;;;9.50;99.90;;;;;;5090374;28;20062;-83
2022/03/14 09:31:34;;;;;;;11.65;7.80;;;9.50;99.90;;;;;;5122487;27;20049;-83
2022/03/14 09:34:00;;;;;;;20.95;14.10;;;9.50;99.90;;;;;;5124222;27;20398;-83
2022/03/14 09:36:26;;;;;;;23.98;15.90;;;9.60;99.90;;;;;;5105410;27;20135;-83
2022/03/14 09:38:51;;;;;;;24.05;15.43;;;9.50;99.90;;;;;;5117481;27;20502;-82
2022/03/14 09:41:19;;;;;;;24.17;16.83;;;9.50;99.90;;;;;;5114605;27;20040;-84
2022/03/14 09:43:47;;;;;;;27.92;19.48;;;9.60;99.90;;;;;;5120648;27;20122;-82
2022/03/14 09:46:14;;;;;;;24.77;17.38;;;9.60;99.90;;;;;;5100956;27;20517;-82
2022/03/14 09:48:49;;;;;;;25.75;18.27;;;9.50;99.90;;;;;;5120238;27;20769;-81
2022/03/14 09:51:17;;;;;;;25.50;18.23;;;9.50;99.90;;;;;;5095247;27;20125;-82
2022/03/14 09:53:44;;;;;;;27.13;18.10;;;9.50;99.90;;;;;;5115544;27;20073;-83
2022/03/14 09:56:10;;;;;;;26.30;16.90;;;9.50;99.90;;;;;;5132911;27;20081;-83
2022/03/14 09:58:36;;;;;;;23.52;16.35;;;9.50;99.90;;;;;;5137048;27;20066;-84
2022/03/14 10:01:03;;;;;;;23.35;15.75;;;9.50;99.90;;;;;;5128497;27;20047;-83
2022/03/14 10:03:29;;;;;;;23.98;16.05;;;9.30;99.90;;;;;;5111999;27;20137;-83
2022/03/14 10:05:55;;;;;;;23.25;16.17;;;9.50;99.90;;;;;;5127394;27;20415;-83
2022/03/14 10:08:22;;;;;;;24.35;16.40;;;9.80;99.90;;;;;;5136953;27;20039;-83
2022/03/14 10:10:49;;;;;;;23.98;14.70;;;9.50;99.90;;;;;;5108523;27;20074;-83
2022/03/14 10:13:16;;;;;;;23.05;14.27;;;9.90;99.90;;;;;;5111167;27;20046;-83
2022/03/14 10:15:42;;;;;;;19.08;11.98;;;9.50;99.90;;;;;;5102239;27;20039;-84
2022/03/14 10:18:10;;;;;;;21.52;12.43;;;9.60;99.90;;;;;;5099346;27;20428;-83
2022/03/14 10:20:36;;;;;;;17.77;11.00;;;9.50;99.90;;;;;;5121849;27;20112;-84
2022/03/14 10:23:05;;;;;;;20.63;10.38;;;9.50;99.90;;;;;;5121619;27;20047;-83
2022/03/14 10:25:31;;;;;;;17.95;10.13;;;9.50;99.90;;;;;;5071700;27;20061;-82
2022/03/14 10:27:57;;;;;;;20.23;9.98;;;9.50;99.90;;;;;;5112031;27;20727;-83
2022/03/14 10:30:34;;;;;;;19.30;10.30;;;9.60;99.90;;;;;;5093049;28;20036;-83
2022/03/14 10:33:12;;;;;;;20.88;10.63;;;9.60;99.90;;;;;;5098633;27;20112;-83
2022/03/14 10:35:43;;;;;;;21.92;10.00;;;9.60;99.90;;;;;;5075786;28;20035;-83
2022/03/14 10:38:11;;;;;;;21.92;10.40;;;9.70;99.90;;;;;;5081725;27;20036;-83
2022/03/14 10:40:40;;;;;;;20.80;8.93;;;9.70;99.90;;;;;;5100096;27;20043;-84
2022/03/14 10:43:23;;;;;;;19.35;7.75;;;9.70;99.90;;;;;;5103035;27;20114;-82
2022/03/14 10:45:49;;;;;;;22.02;7.65;;;9.90;99.90;;;;;;5098927;27;20092;-82
2022/03/14 10:48:15;;;;;;;18.75;7.90;;;9.70;99.90;;;;;;5119103;27;20047;-84
2022/03/14 10:50:42;;;;;;;16.98;7.55;;;9.80;99.90;;;;;;5100629;27;20047;-83
2022/03/14 10:53:17;;;;;;;20.52;9.13;;;9.80;99.90;;;;;;5084764;27;20407;-83
2022/03/14 10:55:49;;;;;;;21.23;9.73;;;9.80;99.90;;;;;;5088562;27;20424;-82
2022/03/14 10:58:21;;;;;;;22.90;9.80;;;9.90;99.90;;;;;;5085458;27;20050;-83
2022/03/14 11:00:49;;;;;;;21.08;8.38;;;9.90;99.90;;;;;;5117360;27;20039;-82
2022/03/14 11:03:30;;;;;;;23.60;9.60;;;9.90;99.90;;;;;;5098393;27;20042;-83
2022/03/14 11:06:05;;;;;;;23.45;8.77;;;10.00;99.90;;;;;;5083645;27;20043;-83
2022/03/14 11:08:30;;;;;;;17.13;9.15;;;9.90;99.90;;;;;;5078464;27;20539;-83
2022/03/14 11:10:58;;;;;;;22.15;9.05;;;10.00;99.90;;;;;;5094390;27;20216;-83
2022/03/14 11:13:24;;;;;;;20.23;8.60;;;10.00;99.90;;;;;;5084587;27;20043;-82
2022/03/14 11:15:50;;;;;;;21.83;7.90;;;10.00;99.90;;;;;;5097893;27;20043;-83
2022/03/14 11:18:22;;;;;;;19.80;7.75;;;10.10;99.90;;;;;;5086580;27;20086;-82
2022/03/14 11:20:48;;;;;;;;;;;10.10;99.90;;;;;;5116920;27;20046;-83
2022/03/14 11:23:14;;;;;;;20.02;6.40;;;10.40;99.90;;;;;;5115438;27;19927;-82
2022/03/14 11:25:45;;;;;;;17.20;6.72;;;10.20;99.90;;;;;;5110096;27;20050;-82
2022/03/14 11:28:18;;;;;;;23.57;5.93;;;10.20;99.90;;;;;;5101359;27;20039;-82
2022/03/14 11:30:59;;;;;;;16.15;5.78;;;10.20;99.90;;;;;;5142879;27;20054;-83
2022/03/14 11:33:25;;;;;;;18.20;6.17;;;10.20;99.90;;;;;;5138911;27;20043;-82
2022/03/14 11:35:52;;;;;;;19.45;5.90;;;10.60;99.90;;;;;;5107456;27;20047;-83
2022/03/14 11:38:18;;;;;;;20.58;6.65;;;10.30;99.90;;;;;;5144681;27;20050;-82
2022/03/14 11:40:45;;;;;;;18.83;6.60;;;10.30;99.90;;;;;;5092250;27;20399;-81
2022/03/14 11:43:11;;;;;;;18.52;6.05;;;10.80;99.90;;;;;;5096468;27;20061;-83
2022/03/14 11:45:40;;;;;;;16.40;6.70;;;10.40;99.90;;;;;;5114906;27;20034;-83
2022/03/14 11:48:06;;;;;;;17.20;7.22;;;10.20;99.90;;;;;;5113929;27;20513;-83
2022/03/14 11:50:45;;;;;;;20.65;7.97;;;10.20;99.90;;;;;;5115588;27;20042;-82
2022/03/14 11:53:19;;;;;;;20.83;8.27;;;10.30;99.90;;;;;;5123692;27;20125;-82
2022/03/14 11:55:56;;;;;;;17.15;7.95;;;10.30;99.90;;;;;;5139969;27;20498;-83
2022/03/14 11:58:36;;;;;;;18.58;8.43;;;10.30;99.90;;;;;;5125985;27;20055;-82
2022/03/14 12:01:23;;;;;;;20.40;8.30;;;10.30;99.90;;;;;;5136245;27;20122;-82
2022/03/14 12:03:48;;;;;;;16.95;8.05;;;10.30;99.90;;;;;;5119553;27;20051;-82
2022/03/14 12:06:14;;;;;;;20.95;8.30;;;10.40;99.90;;;;;;5122176;27;20061;-81
2022/03/14 12:08:46;;;;;;;20.52;8.60;;;10.30;99.90;;;;;;5126686;27;20039;-82
2022/03/14 12:11:37;;;;;;;19.75;8.63;;;10.40;99.90;;;;;;5108432;27;20086;-81
2022/03/14 12:14:11;;;;;;;25.73;9.77;;;10.40;99.90;;;;;;5124082;27;20061;-82
2022/03/14 12:16:42;;;;;;;21.25;9.27;;;10.40;99.90;;;;;;5107049;27;20050;-81
2022/03/14 12:19:29;;;;;;;25.77;10.23;;;10.50;99.90;;;;;;5123089;27;20051;-82
2022/03/14 12:21:57;;;;;;;22.80;9.38;;;10.60;99.90;;;;;;5140768;27;20050;-81
2022/03/14 12:24:37;;;;;;;19.17;10.48;;;11.40;99.90;;;;;;5124190;27;20417;-81
2022/03/14 12:27:21;;;;;;;26.08;10.20;;;10.80;99.90;;;;;;5131918;27;20045;-81
2022/03/14 12:29:49;;;;;;;23.42;10.60;;;10.80;99.90;;;;;;5117706;27;20043;-81
2022/03/14 12:32:21;;;;;;;23.35;10.82;;;10.80;99.90;;;;;;5121133;27;20042;-84
2022/03/14 12:35:03;;;;;;;22.02;10.55;;;10.80;99.90;;;;;;5111531;27;20152;-82
2022/03/14 12:37:35;;;;;;;28.98;10.27;;;10.80;99.90;;;;;;5110501;27;20517;-82
2022/03/14 12:40:02;;;;;;;25.63;11.25;;;10.80;99.90;;;;;;5118851;27;20034;-81
2022/03/14 12:42:41;;;;;;;25.05;10.68;;;10.80;99.90;;;;;;5103400;27;20042;-80
2022/03/14 12:45:14;;;;;;;25.38;11.80;;;10.80;99.90;;;;;;5117370;27;20039;-82
2022/03/14 12:47:41;;;;;;;21.92;10.82;;;10.90;99.90;;;;;;5112743;27;20046;-83